sensor_id;sensor_type;location;lat;lon;timestamp;P1;durP1;ratioP1;P2;durP2;ratioP2
11185;SDS011;5649;52.422;13.754;2022-08-19T00:00:04;9.23;;;6.60;;
11185;SDS011;5649;52.422;13.754;2022-08-19T00:02:30;8.77;;;5.77;;
11185;SDS011;5649;52.422;13.754;2022-08-19T00:04:56;6.30;;;5.70;;
11185;SDS011;5649;52.422;13.754;2022-08-19T00:07:22;7.20;;;5.33;;
11185;SDS011;5649;52.422;13.754;2022-08-19T00:09:48;6.07;;;5.00;;
11185;SDS011;5649;52.422;13.754;2022-08-19T00:12:14;19.63;;;5.37;;
11185;SDS011;5649;52.422;13.754;2022-08-19T00:14:40;7.57;;;5.87;;
11185;SDS011;5649;52.422;13.754;2022-08-19T00:17:06;19.73;;;6.43;;
11185;SDS011;5649;52.422;13.754;2022-08-19T00:19:33;14.50;;;6.20;;
11185;SDS011;5649;52.422;13.754;2022-08-19T00:21:59;11.00;;;5.83;;
11185;SDS011;5649;52.422;13.754;2022-08-19T00:24:27;10.00;;;6.33;;
11185;SDS011;5649;52.422;13.754;2022-08-19T00:26:54;12.83;;;6.93;;
11185;SDS011;5649;52.422;13.754;2022-08-19T00:29:22;9.80;;;5.40;;
11185;SDS011;5649;52.422;13.754;2022-08-19T00:31:49;17.70;;;6.70;;
11185;SDS011;5649;52.422;13.754;2022-08-19T00:34:19;10.63;;;6.53;;
11185;SDS011;5649;52.422;13.754;2022-08-19T00:36:46;9.27;;;5.67;;
11185;SDS011;5649;52.422;13.754;2022-08-19T00:39:13;10.60;;;5.00;;
11185;SDS011;5649;52.422;13.754;2022-08-19T00:41:40;6.37;;;5.17;;
11185;SDS011;5649;52.422;13.754;2022-08-19T00:44:08;10.97;;;5.70;;
11185;SDS011;5649;52.422;13.754;2022-08-19T00:46:36;5.80;;;5.20;;
11185;SDS011;5649;52.422;13.754;2022-08-19T00:51:45;10.43;;;5.90;;
11185;SDS011;5649;52.422;13.754;2022-08-19T00:54:11;7.50;;;5.00;;
11185;SDS011;5649;52.422;13.754;2022-08-19T00:56:38;11.60;;;5.90;;
11185;SDS011;5649;52.422;13.754;2022-08-19T00:59:05;14.17;;;6.80;;
11185;SDS011;5649;52.422;13.754;2022-08-19T01:01:40;18.33;;;6.10;;
11185;SDS011;5649;52.422;13.754;2022-08-19T01:04:07;9.97;;;6.13;;
11185;SDS011;5649;52.422;13.754;2022-08-19T01:06:35;6.93;;;5.57;;
11185;SDS011;5649;52.422;13.754;2022-08-19T01:09:02;15.73;;;6.20;;
11185;SDS011;5649;52.422;13.754;2022-08-19T01:11:30;19.30;;;6.00;;
11185;SDS011;5649;52.422;13.754;2022-08-19T01:13:57;12.03;;;6.13;;
11185;SDS011;5649;52.422;13.754;2022-08-19T01:16:24;29.00;;;6.37;;
11185;SDS011;5649;52.422;13.754;2022-08-19T01:18:50;12.23;;;6.17;;
11185;SDS011;5649;52.422;13.754;2022-08-19T01:23:49;12.53;;;6.10;;
11185;SDS011;5649;52.422;13.754;2022-08-19T01:26:16;6.63;;;4.77;;
11185;SDS011;5649;52.422;13.754;2022-08-19T01:28:43;7.30;;;5.37;;
11185;SDS011;5649;52.422;13.754;2022-08-19T01:31:13;8.37;;;4.43;;
11185;SDS011;5649;52.422;13.754;2022-08-19T01:33:39;9.10;;;5.23;;
11185;SDS011;5649;52.422;13.754;2022-08-19T01:36:07;9.13;;;5.07;;
11185;SDS011;5649;52.422;13.754;2022-08-19T01:38:35;7.27;;;4.50;;
11185;SDS011;5649;52.422;13.754;2022-08-19T01:41:01;7.47;;;4.57;;
11185;SDS011;5649;52.422;13.754;2022-08-19T01:43:27;11.27;;;4.60;;
11185;SDS011;5649;52.422;13.754;2022-08-19T01:45:53;8.07;;;5.00;;
11185;SDS011;5649;52.422;13.754;2022-08-19T01:48:19;6.33;;;4.63;;
11185;SDS011;5649;52.422;13.754;2022-08-19T01:50:45;8.87;;;5.33;;
11185;SDS011;5649;52.422;13.754;2022-08-19T01:53:12;10.97;;;5.90;;
11185;SDS011;5649;52.422;13.754;2022-08-19T01:55:39;10.33;;;5.33;;
11185;SDS011;5649;52.422;13.754;2022-08-19T01:58:05;6.93;;;4.50;;
11185;SDS011;5649;52.422;13.754;2022-08-19T02:00:33;7.70;;;4.77;;
11185;SDS011;5649;52.422;13.754;2022-08-19T02:02:59;9.83;;;5.20;;
11185;SDS011;5649;52.422;13.754;2022-08-19T02:05:26;8.27;;;4.77;;
11185;SDS011;5649;52.422;13.754;2022-08-19T02:07:54;5.90;;;4.97;;
11185;SDS011;5649;52.422;13.754;2022-08-19T02:10:21;6.57;;;4.53;;
11185;SDS011;5649;52.422;13.754;2022-08-19T02:12:47;9.17;;;4.30;;
11185;SDS011;5649;52.422;13.754;2022-08-19T02:15:14;7.70;;;5.23;;
11185;SDS011;5649;52.422;13.754;2022-08-19T02:17:40;7.47;;;4.77;;
11185;SDS011;5649;52.422;13.754;2022-08-19T02:20:06;7.47;;;4.57;;
11185;SDS011;5649;52.422;13.754;2022-08-19T02:22:33;7.40;;;4.53;;
11185;SDS011;5649;52.422;13.754;2022-08-19T02:24:59;7.73;;;5.20;;
11185;SDS011;5649;52.422;13.754;2022-08-19T02:27:25;11.27;;;4.80;;
11185;SDS011;5649;52.422;13.754;2022-08-19T02:29:51;12.37;;;5.90;;
11185;SDS011;5649;52.422;13.754;2022-08-19T02:32:17;8.57;;;6.10;;
11185;SDS011;5649;52.422;13.754;2022-08-19T02:34:45;10.90;;;5.70;;
11185;SDS011;5649;52.422;13.754;2022-08-19T02:37:11;7.77;;;4.80;;
11185;SDS011;5649;52.422;13.754;2022-08-19T02:39:57;8.53;;;6.00;;
11185;SDS011;5649;52.422;13.754;2022-08-19T02:42:23;8.10;;;5.43;;
11185;SDS011;5649;52.422;13.754;2022-08-19T02:44:49;11.17;;;5.90;;
11185;SDS011;5649;52.422;13.754;2022-08-19T02:47:16;9.30;;;5.10;;
11185;SDS011;5649;52.422;13.754;2022-08-19T02:49:43;16.30;;;5.07;;
11185;SDS011;5649;52.422;13.754;2022-08-19T02:52:09;8.67;;;5.50;;
11185;SDS011;5649;52.422;13.754;2022-08-19T02:54:36;5.63;;;4.90;;
11185;SDS011;5649;52.422;13.754;2022-08-19T02:57:03;8.40;;;5.73;;
11185;SDS011;5649;52.422;13.754;2022-08-19T02:59:29;6.33;;;4.77;;
11185;SDS011;5649;52.422;13.754;2022-08-19T03:01:55;11.73;;;5.73;;
11185;SDS011;5649;52.422;13.754;2022-08-19T03:04:21;10.37;;;6.70;;
11185;SDS011;5649;52.422;13.754;2022-08-19T03:06:49;9.30;;;5.53;;
11185;SDS011;5649;52.422;13.754;2022-08-19T03:09:15;6.67;;;5.23;;
11185;SDS011;5649;52.422;13.754;2022-08-19T03:11:42;8.87;;;6.97;;
11185;SDS011;5649;52.422;13.754;2022-08-19T03:14:08;15.63;;;5.67;;
11185;SDS011;5649;52.422;13.754;2022-08-19T03:16:36;8.97;;;5.53;;
11185;SDS011;5649;52.422;13.754;2022-08-19T03:19:05;10.93;;;6.40;;
11185;SDS011;5649;52.422;13.754;2022-08-19T03:21:32;11.50;;;6.50;;
11185;SDS011;5649;52.422;13.754;2022-08-19T03:23:59;13.40;;;5.40;;
11185;SDS011;5649;52.422;13.754;2022-08-19T03:26:25;9.70;;;6.77;;
11185;SDS011;5649;52.422;13.754;2022-08-19T03:28:51;7.20;;;5.80;;
11185;SDS011;5649;52.422;13.754;2022-08-19T03:31:18;9.90;;;6.63;;
11185;SDS011;5649;52.422;13.754;2022-08-19T03:33:46;6.83;;;5.70;;
11185;SDS011;5649;52.422;13.754;2022-08-19T03:36:14;13.03;;;7.10;;
11185;SDS011;5649;52.422;13.754;2022-08-19T03:38:41;9.90;;;6.10;;
11185;SDS011;5649;52.422;13.754;2022-08-19T03:41:09;9.43;;;6.20;;
11185;SDS011;5649;52.422;13.754;2022-08-19T03:43:36;10.07;;;6.47;;
11185;SDS011;5649;52.422;13.754;2022-08-19T03:46:06;7.80;;;5.73;;
11185;SDS011;5649;52.422;13.754;2022-08-19T03:48:33;8.47;;;6.47;;
11185;SDS011;5649;52.422;13.754;2022-08-19T03:51:00;6.70;;;5.73;;
11185;SDS011;5649;52.422;13.754;2022-08-19T03:53:27;9.50;;;5.83;;
11185;SDS011;5649;52.422;13.754;2022-08-19T03:55:53;8.83;;;5.27;;
11185;SDS011;5649;52.422;13.754;2022-08-19T03:58:20;10.17;;;6.40;;
11185;SDS011;5649;52.422;13.754;2022-08-19T04:00:46;7.43;;;5.60;;
11185;SDS011;5649;52.422;13.754;2022-08-19T04:03:12;13.30;;;6.63;;
11185;SDS011;5649;52.422;13.754;2022-08-19T04:05:38;9.20;;;5.90;;
11185;SDS011;5649;52.422;13.754;2022-08-19T04:08:04;7.10;;;5.80;;
11185;SDS011;5649;52.422;13.754;2022-08-19T04:10:31;11.57;;;6.70;;
11185;SDS011;5649;52.422;13.754;2022-08-19T04:12:57;9.90;;;5.93;;
11185;SDS011;5649;52.422;13.754;2022-08-19T04:15:23;11.57;;;6.50;;
11185;SDS011;5649;52.422;13.754;2022-08-19T04:17:49;8.60;;;6.23;;
11185;SDS011;5649;52.422;13.754;2022-08-19T04:20:15;7.60;;;5.50;;
11185;SDS011;5649;52.422;13.754;2022-08-19T04:22:41;7.87;;;6.10;;
11185;SDS011;5649;52.422;13.754;2022-08-19T04:25:08;10.77;;;5.60;;
11185;SDS011;5649;52.422;13.754;2022-08-19T04:27:34;6.00;;;5.40;;
11185;SDS011;5649;52.422;13.754;2022-08-19T04:30:00;8.97;;;6.03;;
11185;SDS011;5649;52.422;13.754;2022-08-19T04:32:26;10.43;;;6.57;;
11185;SDS011;5649;52.422;13.754;2022-08-19T04:34:52;20.90;;;6.50;;
11185;SDS011;5649;52.422;13.754;2022-08-19T04:37:21;12.80;;;5.83;;
11185;SDS011;5649;52.422;13.754;2022-08-19T04:39:48;7.40;;;5.93;;
11185;SDS011;5649;52.422;13.754;2022-08-19T04:42:32;8.77;;;5.47;;
11185;SDS011;5649;52.422;13.754;2022-08-19T04:45:05;10.10;;;6.40;;
11185;SDS011;5649;52.422;13.754;2022-08-19T04:47:31;8.13;;;5.00;;
11185;SDS011;5649;52.422;13.754;2022-08-19T04:49:57;9.47;;;5.53;;
11185;SDS011;5649;52.422;13.754;2022-08-19T04:52:23;27.77;;;6.73;;
11185;SDS011;5649;52.422;13.754;2022-08-19T04:54:49;9.73;;;5.63;;
11185;SDS011;5649;52.422;13.754;2022-08-19T04:57:15;7.53;;;6.17;;
11185;SDS011;5649;52.422;13.754;2022-08-19T04:59:41;14.87;;;5.97;;
11185;SDS011;5649;52.422;13.754;2022-08-19T05:02:08;8.03;;;4.90;;
11185;SDS011;5649;52.422;13.754;2022-08-19T05:04:34;10.63;;;5.70;;
11185;SDS011;5649;52.422;13.754;2022-08-19T05:07:03;11.77;;;6.10;;
11185;SDS011;5649;52.422;13.754;2022-08-19T05:09:29;8.00;;;6.10;;
11185;SDS011;5649;52.422;13.754;2022-08-19T05:11:55;5.87;;;5.10;;
11185;SDS011;5649;52.422;13.754;2022-08-19T05:14:21;7.50;;;5.23;;
11185;SDS011;5649;52.422;13.754;2022-08-19T05:16:48;5.37;;;4.73;;
11185;SDS011;5649;52.422;13.754;2022-08-19T05:19:14;10.73;;;4.90;;
11185;SDS011;5649;52.422;13.754;2022-08-19T05:21:59;14.43;;;6.40;;
11185;SDS011;5649;52.422;13.754;2022-08-19T05:24:44;11.43;;;4.90;;
11185;SDS011;5649;52.422;13.754;2022-08-19T05:27:10;15.80;;;5.80;;
11185;SDS011;5649;52.422;13.754;2022-08-19T05:29:36;6.90;;;5.90;;
11185;SDS011;5649;52.422;13.754;2022-08-19T05:32:03;11.37;;;6.10;;
11185;SDS011;5649;52.422;13.754;2022-08-19T05:34:30;8.00;;;5.80;;
11185;SDS011;5649;52.422;13.754;2022-08-19T05:36:58;12.97;;;5.93;;
11185;SDS011;5649;52.422;13.754;2022-08-19T05:39:25;16.03;;;5.90;;
11185;SDS011;5649;52.422;13.754;2022-08-19T05:41:54;18.50;;;6.30;;
11185;SDS011;5649;52.422;13.754;2022-08-19T05:44:22;13.87;;;6.13;;
11185;SDS011;5649;52.422;13.754;2022-08-19T05:46:48;21.13;;;6.87;;
11185;SDS011;5649;52.422;13.754;2022-08-19T05:49:17;12.93;;;7.60;;
11185;SDS011;5649;52.422;13.754;2022-08-19T05:51:43;17.33;;;6.47;;
11185;SDS011;5649;52.422;13.754;2022-08-19T05:54:10;7.63;;;6.13;;
11185;SDS011;5649;52.422;13.754;2022-08-19T05:56:38;16.33;;;6.10;;
11185;SDS011;5649;52.422;13.754;2022-08-19T05:59:05;13.07;;;7.03;;
11185;SDS011;5649;52.422;13.754;2022-08-19T06:01:34;11.10;;;6.40;;
11185;SDS011;5649;52.422;13.754;2022-08-19T06:04:00;8.00;;;6.13;;
11185;SDS011;5649;52.422;13.754;2022-08-19T06:06:26;24.83;;;7.40;;
11185;SDS011;5649;52.422;13.754;2022-08-19T06:08:52;17.80;;;7.73;;
11185;SDS011;5649;52.422;13.754;2022-08-19T06:11:31;10.37;;;7.40;;
11185;SDS011;5649;52.422;13.754;2022-08-19T06:13:59;11.53;;;7.73;;
11185;SDS011;5649;52.422;13.754;2022-08-19T06:16:26;11.77;;;6.53;;
11185;SDS011;5649;52.422;13.754;2022-08-19T06:18:52;8.03;;;6.53;;
11185;SDS011;5649;52.422;13.754;2022-08-19T06:21:20;10.47;;;7.27;;
11185;SDS011;5649;52.422;13.754;2022-08-19T06:23:47;11.33;;;6.90;;
11185;SDS011;5649;52.422;13.754;2022-08-19T06:26:14;17.27;;;7.87;;
11185;SDS011;5649;52.422;13.754;2022-08-19T06:28:41;10.67;;;6.83;;
11185;SDS011;5649;52.422;13.754;2022-08-19T06:31:08;13.23;;;8.33;;
11185;SDS011;5649;52.422;13.754;2022-08-19T06:33:34;12.17;;;7.67;;
11185;SDS011;5649;52.422;13.754;2022-08-19T06:36:00;19.83;;;9.17;;
11185;SDS011;5649;52.422;13.754;2022-08-19T06:38:26;15.00;;;7.13;;
11185;SDS011;5649;52.422;13.754;2022-08-19T06:40:59;10.53;;;7.27;;
11185;SDS011;5649;52.422;13.754;2022-08-19T06:43:25;12.73;;;7.63;;
11185;SDS011;5649;52.422;13.754;2022-08-19T06:45:51;10.83;;;7.47;;
11185;SDS011;5649;52.422;13.754;2022-08-19T06:48:17;22.73;;;8.17;;
11185;SDS011;5649;52.422;13.754;2022-08-19T06:50:43;11.60;;;7.47;;
11185;SDS011;5649;52.422;13.754;2022-08-19T06:53:09;17.87;;;7.67;;
11185;SDS011;5649;52.422;13.754;2022-08-19T06:55:35;32.43;;;8.13;;
11185;SDS011;5649;52.422;13.754;2022-08-19T06:58:03;21.60;;;9.07;;
11185;SDS011;5649;52.422;13.754;2022-08-19T07:00:29;30.33;;;9.23;;
11185;SDS011;5649;52.422;13.754;2022-08-19T07:02:55;25.40;;;8.37;;
11185;SDS011;5649;52.422;13.754;2022-08-19T07:05:21;16.63;;;10.03;;
11185;SDS011;5649;52.422;13.754;2022-08-19T07:07:47;18.50;;;8.57;;
11185;SDS011;5649;52.422;13.754;2022-08-19T07:10:13;18.77;;;8.40;;
11185;SDS011;5649;52.422;13.754;2022-08-19T07:12:39;11.10;;;8.20;;
11185;SDS011;5649;52.422;13.754;2022-08-19T07:15:06;14.70;;;8.70;;
11185;SDS011;5649;52.422;13.754;2022-08-19T07:17:35;10.63;;;7.50;;
11185;SDS011;5649;52.422;13.754;2022-08-19T07:20:03;16.03;;;8.17;;
11185;SDS011;5649;52.422;13.754;2022-08-19T07:22:30;11.87;;;8.17;;
11185;SDS011;5649;52.422;13.754;2022-08-19T07:24:56;19.07;;;9.53;;
11185;SDS011;5649;52.422;13.754;2022-08-19T07:27:22;22.67;;;10.33;;
11185;SDS011;5649;52.422;13.754;2022-08-19T07:29:48;12.40;;;8.40;;
11185;SDS011;5649;52.422;13.754;2022-08-19T07:32:14;21.77;;;8.00;;
11185;SDS011;5649;52.422;13.754;2022-08-19T07:34:41;21.70;;;10.03;;
11185;SDS011;5649;52.422;13.754;2022-08-19T07:37:07;13.80;;;8.70;;
11185;SDS011;5649;52.422;13.754;2022-08-19T07:39:33;32.77;;;9.20;;
11185;SDS011;5649;52.422;13.754;2022-08-19T07:42:01;28.13;;;10.60;;
11185;SDS011;5649;52.422;13.754;2022-08-19T07:44:27;30.87;;;8.53;;
11185;SDS011;5649;52.422;13.754;2022-08-19T07:46:54;21.97;;;9.13;;
11185;SDS011;5649;52.422;13.754;2022-08-19T07:49:21;19.13;;;9.37;;
11185;SDS011;5649;52.422;13.754;2022-08-19T07:51:50;13.87;;;9.57;;
11185;SDS011;5649;52.422;13.754;2022-08-19T07:54:18;12.23;;;9.23;;
11185;SDS011;5649;52.422;13.754;2022-08-19T07:56:44;18.47;;;8.30;;
11185;SDS011;5649;52.422;13.754;2022-08-19T07:59:10;28.23;;;10.57;;
11185;SDS011;5649;52.422;13.754;2022-08-19T08:01:37;17.53;;;10.07;;
11185;SDS011;5649;52.422;13.754;2022-08-19T08:04:05;19.63;;;9.17;;
11185;SDS011;5649;52.422;13.754;2022-08-19T08:06:50;25.57;;;10.37;;
11185;SDS011;5649;52.422;13.754;2022-08-19T08:09:37;20.83;;;9.83;;
11185;SDS011;5649;52.422;13.754;2022-08-19T08:12:08;10.70;;;8.30;;
11185;SDS011;5649;52.422;13.754;2022-08-19T08:14:40;10.10;;;7.93;;
11185;SDS011;5649;52.422;13.754;2022-08-19T08:17:07;16.80;;;9.83;;
11185;SDS011;5649;52.422;13.754;2022-08-19T08:19:33;17.87;;;9.07;;
11185;SDS011;5649;52.422;13.754;2022-08-19T08:22:00;14.60;;;8.73;;
11185;SDS011;5649;52.422;13.754;2022-08-19T08:24:28;14.30;;;9.50;;
11185;SDS011;5649;52.422;13.754;2022-08-19T08:26:55;17.50;;;9.73;;
11185;SDS011;5649;52.422;13.754;2022-08-19T08:29:22;14.93;;;8.40;;
11185;SDS011;5649;52.422;13.754;2022-08-19T08:31:48;15.20;;;10.20;;
11185;SDS011;5649;52.422;13.754;2022-08-19T08:34:14;30.03;;;8.77;;
11185;SDS011;5649;52.422;13.754;2022-08-19T08:36:42;13.10;;;8.70;;
11185;SDS011;5649;52.422;13.754;2022-08-19T08:39:10;17.07;;;9.57;;
11185;SDS011;5649;52.422;13.754;2022-08-19T08:44:03;13.87;;;9.20;;
11185;SDS011;5649;52.422;13.754;2022-08-19T08:48:58;12.67;;;8.47;;
11185;SDS011;5649;52.422;13.754;2022-08-19T08:51:27;19.60;;;9.27;;
11185;SDS011;5649;52.422;13.754;2022-08-19T08:53:54;13.77;;;8.97;;
11185;SDS011;5649;52.422;13.754;2022-08-19T08:56:21;10.87;;;8.33;;
11185;SDS011;5649;52.422;13.754;2022-08-19T09:01:23;11.60;;;8.67;;
11185;SDS011;5649;52.422;13.754;2022-08-19T09:03:49;13.47;;;9.23;;
11185;SDS011;5649;52.422;13.754;2022-08-19T09:06:23;13.97;;;7.97;;
11185;SDS011;5649;52.422;13.754;2022-08-19T09:16:21;18.70;;;10.67;;
11185;SDS011;5649;52.422;13.754;2022-08-19T09:18:52;16.20;;;9.27;;
11185;SDS011;5649;52.422;13.754;2022-08-19T09:21:19;25.77;;;8.87;;
11185;SDS011;5649;52.422;13.754;2022-08-19T09:23:46;15.67;;;8.80;;
11185;SDS011;5649;52.422;13.754;2022-08-19T09:26:13;13.00;;;9.13;;
11185;SDS011;5649;52.422;13.754;2022-08-19T09:28:40;13.07;;;7.30;;
11185;SDS011;5649;52.422;13.754;2022-08-19T09:31:12;14.10;;;8.77;;
11185;SDS011;5649;52.422;13.754;2022-08-19T09:33:39;15.70;;;8.77;;
11185;SDS011;5649;52.422;13.754;2022-08-19T09:36:09;17.50;;;8.63;;
11185;SDS011;5649;52.422;13.754;2022-08-19T09:38:35;11.50;;;8.70;;
11185;SDS011;5649;52.422;13.754;2022-08-19T09:41:13;20.67;;;9.70;;
11185;SDS011;5649;52.422;13.754;2022-08-19T09:43:40;25.93;;;10.07;;
11185;SDS011;5649;52.422;13.754;2022-08-19T09:46:07;12.17;;;8.40;;
11185;SDS011;5649;52.422;13.754;2022-08-19T09:48:37;19.37;;;9.20;;
11185;SDS011;5649;52.422;13.754;2022-08-19T09:51:07;17.60;;;8.37;;
11185;SDS011;5649;52.422;13.754;2022-08-19T09:53:34;23.00;;;8.60;;
11185;SDS011;5649;52.422;13.754;2022-08-19T09:56:00;12.90;;;7.87;;
11185;SDS011;5649;52.422;13.754;2022-08-19T09:58:26;13.33;;;8.63;;
11185;SDS011;5649;52.422;13.754;2022-08-19T10:00:54;14.50;;;8.70;;
11185;SDS011;5649;52.422;13.754;2022-08-19T10:03:20;24.67;;;8.03;;
11185;SDS011;5649;52.422;13.754;2022-08-19T10:05:47;16.17;;;9.40;;
11185;SDS011;5649;52.422;13.754;2022-08-19T10:08:13;19.80;;;8.37;;
11185;SDS011;5649;52.422;13.754;2022-08-19T10:10:42;17.23;;;8.90;;
11185;SDS011;5649;52.422;13.754;2022-08-19T10:13:09;11.63;;;7.57;;
11185;SDS011;5649;52.422;13.754;2022-08-19T10:15:35;13.60;;;7.90;;
11185;SDS011;5649;52.422;13.754;2022-08-19T10:18:04;15.50;;;7.03;;
11185;SDS011;5649;52.422;13.754;2022-08-19T10:20:30;19.60;;;7.40;;
11185;SDS011;5649;52.422;13.754;2022-08-19T10:22:56;12.53;;;8.03;;
11185;SDS011;5649;52.422;13.754;2022-08-19T10:25:24;20.67;;;9.37;;
11185;SDS011;5649;52.422;13.754;2022-08-19T10:27:51;12.80;;;7.80;;
11185;SDS011;5649;52.422;13.754;2022-08-19T10:30:18;9.30;;;7.93;;
11185;SDS011;5649;52.422;13.754;2022-08-19T10:32:44;21.13;;;7.57;;
11185;SDS011;5649;52.422;13.754;2022-08-19T10:35:11;12.13;;;8.50;;
11185;SDS011;5649;52.422;13.754;2022-08-19T10:37:37;16.80;;;8.77;;
11185;SDS011;5649;52.422;13.754;2022-08-19T10:40:07;13.00;;;8.30;;
11185;SDS011;5649;52.422;13.754;2022-08-19T10:42:35;17.23;;;8.47;;
11185;SDS011;5649;52.422;13.754;2022-08-19T10:45:02;10.20;;;7.90;;
11185;SDS011;5649;52.422;13.754;2022-08-19T10:47:28;21.83;;;8.73;;
11185;SDS011;5649;52.422;13.754;2022-08-19T10:49:54;7.77;;;7.03;;
11185;SDS011;5649;52.422;13.754;2022-08-19T10:52:39;15.80;;;7.70;;
11185;SDS011;5649;52.422;13.754;2022-08-19T10:55:06;11.70;;;8.33;;
11185;SDS011;5649;52.422;13.754;2022-08-19T10:57:51;15.87;;;8.70;;
11185;SDS011;5649;52.422;13.754;2022-08-19T11:00:18;12.20;;;8.60;;
11185;SDS011;5649;52.422;13.754;2022-08-19T11:02:44;15.10;;;8.67;;
11185;SDS011;5649;52.422;13.754;2022-08-19T11:05:10;15.93;;;7.97;;
11185;SDS011;5649;52.422;13.754;2022-08-19T11:07:40;17.07;;;9.50;;
11185;SDS011;5649;52.422;13.754;2022-08-19T11:10:06;14.13;;;7.93;;
11185;SDS011;5649;52.422;13.754;2022-08-19T11:12:35;12.40;;;7.43;;
11185;SDS011;5649;52.422;13.754;2022-08-19T11:15:01;19.30;;;7.50;;
11185;SDS011;5649;52.422;13.754;2022-08-19T11:17:28;14.80;;;8.73;;
11185;SDS011;5649;52.422;13.754;2022-08-19T11:19:55;16.40;;;9.20;;
11185;SDS011;5649;52.422;13.754;2022-08-19T11:22:21;12.80;;;7.60;;
11185;SDS011;5649;52.422;13.754;2022-08-19T11:24:47;12.93;;;7.80;;
11185;SDS011;5649;52.422;13.754;2022-08-19T11:27:13;26.80;;;7.43;;
11185;SDS011;5649;52.422;13.754;2022-08-19T11:29:40;28.03;;;8.60;;
11185;SDS011;5649;52.422;13.754;2022-08-19T11:32:07;10.27;;;6.90;;
11185;SDS011;5649;52.422;13.754;2022-08-19T11:34:34;10.80;;;8.07;;
11185;SDS011;5649;52.422;13.754;2022-08-19T11:37:00;16.30;;;8.53;;
11185;SDS011;5649;52.422;13.754;2022-08-19T11:39:27;14.17;;;9.50;;
11185;SDS011;5649;52.422;13.754;2022-08-19T11:41:54;14.10;;;7.83;;
11185;SDS011;5649;52.422;13.754;2022-08-19T11:44:20;11.20;;;7.67;;
11185;SDS011;5649;52.422;13.754;2022-08-19T11:46:46;16.10;;;8.93;;
11185;SDS011;5649;52.422;13.754;2022-08-19T11:49:16;12.37;;;7.30;;
11185;SDS011;5649;52.422;13.754;2022-08-19T11:51:43;13.03;;;8.37;;
11185;SDS011;5649;52.422;13.754;2022-08-19T11:54:10;9.13;;;7.30;;
11185;SDS011;5649;52.422;13.754;2022-08-19T11:56:37;10.37;;;8.40;;
11185;SDS011;5649;52.422;13.754;2022-08-19T11:59:03;16.93;;;8.33;;
11185;SDS011;5649;52.422;13.754;2022-08-19T12:01:29;17.60;;;8.60;;
11185;SDS011;5649;52.422;13.754;2022-08-19T12:03:56;16.13;;;8.60;;
11185;SDS011;5649;52.422;13.754;2022-08-19T12:06:27;13.37;;;8.03;;
11185;SDS011;5649;52.422;13.754;2022-08-19T12:09:04;13.80;;;8.57;;
11185;SDS011;5649;52.422;13.754;2022-08-19T12:11:30;15.77;;;9.03;;
11185;SDS011;5649;52.422;13.754;2022-08-19T12:13:56;17.73;;;7.80;;
11185;SDS011;5649;52.422;13.754;2022-08-19T12:16:24;15.23;;;9.10;;
11185;SDS011;5649;52.422;13.754;2022-08-19T12:18:51;12.50;;;9.43;;
11185;SDS011;5649;52.422;13.754;2022-08-19T12:21:19;13.20;;;7.70;;
11185;SDS011;5649;52.422;13.754;2022-08-19T12:23:47;11.07;;;8.00;;
11185;SDS011;5649;52.422;13.754;2022-08-19T12:26:13;15.90;;;7.50;;
11185;SDS011;5649;52.422;13.754;2022-08-19T12:28:39;14.43;;;9.53;;
11185;SDS011;5649;52.422;13.754;2022-08-19T12:31:06;15.43;;;8.37;;
11185;SDS011;5649;52.422;13.754;2022-08-19T12:33:32;13.60;;;7.50;;
11185;SDS011;5649;52.422;13.754;2022-08-19T12:36:02;11.30;;;7.33;;
11185;SDS011;5649;52.422;13.754;2022-08-19T12:38:29;12.67;;;7.80;;
11185;SDS011;5649;52.422;13.754;2022-08-19T12:40:57;12.60;;;8.20;;
11185;SDS011;5649;52.422;13.754;2022-08-19T12:43:23;10.97;;;7.20;;
11185;SDS011;5649;52.422;13.754;2022-08-19T12:45:49;11.03;;;7.60;;
11185;SDS011;5649;52.422;13.754;2022-08-19T12:48:15;8.47;;;7.20;;
11185;SDS011;5649;52.422;13.754;2022-08-19T12:50:42;14.77;;;7.30;;
11185;SDS011;5649;52.422;13.754;2022-08-19T12:53:10;10.63;;;7.90;;
11185;SDS011;5649;52.422;13.754;2022-08-19T12:55:36;14.93;;;8.10;;
11185;SDS011;5649;52.422;13.754;2022-08-19T12:58:02;11.37;;;7.90;;
11185;SDS011;5649;52.422;13.754;2022-08-19T13:00:29;16.60;;;8.07;;
11185;SDS011;5649;52.422;13.754;2022-08-19T13:02:57;11.57;;;8.30;;
11185;SDS011;5649;52.422;13.754;2022-08-19T13:05:24;12.27;;;7.53;;
11185;SDS011;5649;52.422;13.754;2022-08-19T13:07:50;13.07;;;7.77;;
11185;SDS011;5649;52.422;13.754;2022-08-19T13:10:18;11.33;;;6.60;;
11185;SDS011;5649;52.422;13.754;2022-08-19T13:12:46;17.53;;;6.90;;
11185;SDS011;5649;52.422;13.754;2022-08-19T13:15:13;9.50;;;7.30;;
11185;SDS011;5649;52.422;13.754;2022-08-19T13:17:39;9.00;;;6.30;;
11185;SDS011;5649;52.422;13.754;2022-08-19T13:20:06;10.07;;;7.00;;
11185;SDS011;5649;52.422;13.754;2022-08-19T13:22:33;8.60;;;6.90;;
11185;SDS011;5649;52.422;13.754;2022-08-19T13:25:00;13.77;;;6.50;;
11185;SDS011;5649;52.422;13.754;2022-08-19T13:27:26;12.17;;;7.00;;
11185;SDS011;5649;52.422;13.754;2022-08-19T13:29:52;11.97;;;6.87;;
11185;SDS011;5649;52.422;13.754;2022-08-19T13:32:37;13.63;;;7.33;;
11185;SDS011;5649;52.422;13.754;2022-08-19T13:35:22;15.03;;;6.70;;
11185;SDS011;5649;52.422;13.754;2022-08-19T13:37:48;13.77;;;7.30;;
11185;SDS011;5649;52.422;13.754;2022-08-19T13:40:15;10.00;;;6.47;;
11185;SDS011;5649;52.422;13.754;2022-08-19T13:42:44;6.90;;;5.77;;
11185;SDS011;5649;52.422;13.754;2022-08-19T13:45:11;9.83;;;6.67;;
11185;SDS011;5649;52.422;13.754;2022-08-19T13:47:37;9.27;;;7.03;;
11185;SDS011;5649;52.422;13.754;2022-08-19T13:50:14;9.43;;;6.53;;
11185;SDS011;5649;52.422;13.754;2022-08-19T13:52:41;9.80;;;5.60;;
11185;SDS011;5649;52.422;13.754;2022-08-19T13:55:07;12.80;;;6.10;;
11185;SDS011;5649;52.422;13.754;2022-08-19T13:57:34;5.20;;;4.67;;
11185;SDS011;5649;52.422;13.754;2022-08-19T14:00:00;6.33;;;5.20;;
11185;SDS011;5649;52.422;13.754;2022-08-19T14:02:27;13.10;;;6.50;;
11185;SDS011;5649;52.422;13.754;2022-08-19T14:04:53;9.87;;;5.80;;
11185;SDS011;5649;52.422;13.754;2022-08-19T14:07:19;14.40;;;6.33;;
11185;SDS011;5649;52.422;13.754;2022-08-19T14:09:46;9.60;;;5.17;;
11185;SDS011;5649;52.422;13.754;2022-08-19T14:12:12;10.17;;;6.97;;
11185;SDS011;5649;52.422;13.754;2022-08-19T14:14:38;6.93;;;5.10;;
11185;SDS011;5649;52.422;13.754;2022-08-19T14:17:07;8.63;;;5.50;;
11185;SDS011;5649;52.422;13.754;2022-08-19T14:19:34;5.87;;;5.23;;
11185;SDS011;5649;52.422;13.754;2022-08-19T14:22:01;9.07;;;6.10;;
11185;SDS011;5649;52.422;13.754;2022-08-19T14:24:27;11.57;;;6.00;;
11185;SDS011;5649;52.422;13.754;2022-08-19T14:26:53;8.53;;;6.37;;
11185;SDS011;5649;52.422;13.754;2022-08-19T14:29:19;9.20;;;5.97;;
11185;SDS011;5649;52.422;13.754;2022-08-19T14:31:45;8.47;;;6.50;;
11185;SDS011;5649;52.422;13.754;2022-08-19T14:34:11;10.37;;;6.17;;
11185;SDS011;5649;52.422;13.754;2022-08-19T14:36:37;10.20;;;6.20;;
11185;SDS011;5649;52.422;13.754;2022-08-19T14:39:03;7.13;;;6.30;;
11185;SDS011;5649;52.422;13.754;2022-08-19T14:41:30;8.63;;;5.67;;
11185;SDS011;5649;52.422;13.754;2022-08-19T14:43:56;7.57;;;5.77;;
11185;SDS011;5649;52.422;13.754;2022-08-19T14:46:24;7.90;;;5.90;;
11185;SDS011;5649;52.422;13.754;2022-08-19T14:48:50;10.20;;;6.33;;
11185;SDS011;5649;52.422;13.754;2022-08-19T14:51:17;8.67;;;5.47;;
11185;SDS011;5649;52.422;13.754;2022-08-19T14:53:43;9.57;;;6.20;;
11185;SDS011;5649;52.422;13.754;2022-08-19T14:56:11;11.57;;;6.07;;
11185;SDS011;5649;52.422;13.754;2022-08-19T14:58:38;20.17;;;7.47;;